Time;durP1;ratioP1;P1;durP2;ratioP2;P2;SDS_P1;SDS_P2;PMS_P1;PMS_P2;Temp;Humidity;BMP_temperature;BMP_pressure;BME280_temperature;BME280_humidity;BME280_pressure;Samples;Min_cycle;Max_cycle;Signal;HPM_P1;HPM_P2
2022/07/12 00:01:54;;;;;;;5.93;2.30;;;16.10;99.90;;;;;;4917763;28;20407;-90
2022/07/12 00:04:20;;;;;;;6.40;2.50;;;16.10;99.90;;;;;;4918562;28;20051;-90
2022/07/12 00:06:46;;;;;;;7.05;2.70;;;16.00;99.90;;;;;;4927237;28;20719;-90
2022/07/12 00:09:12;;;;;;;6.20;2.60;;;16.00;99.90;;;;;;4939989;29;20082;-90
2022/07/12 00:11:38;;;;;;;6.80;2.47;;;16.00;99.90;;;;;;4898238;29;20396;-90
2022/07/12 00:14:04;;;;;;;6.78;2.78;;;16.00;99.90;;;;;;4907133;29;20559;-90
2022/07/12 00:16:30;;;;;;;7.53;2.80;;;16.00;99.90;;;;;;4914866;29;20044;-90
2022/07/12 00:18:56;;;;;;;6.95;2.72;;;16.00;99.90;;;;;;4945592;29;20039;-90
2022/07/12 00:21:22;;;;;;;7.43;2.95;;;16.00;99.90;;;;;;4930251;29;20507;-91
2022/07/12 00:23:47;;;;;;;7.18;2.88;;;16.00;99.90;;;;;;4915053;29;20131;-90
2022/07/12 00:26:13;;;;;;;7.38;3.03;;;16.00;99.90;;;;;;4913543;29;20067;-91
2022/07/12 00:28:42;;;;;;;8.18;2.88;;;16.00;99.90;;;;;;4941561;29;20047;-90
2022/07/12 00:31:07;;;;;;;6.50;2.55;;;16.00;99.90;;;;;;4948061;28;20124;-91
2022/07/12 00:33:33;;;;;;;7.13;2.90;;;16.00;99.90;;;;;;4952846;28;20555;-90
2022/07/12 00:35:59;;;;;;;7.35;3.05;;;16.00;99.90;;;;;;4934566;28;20070;-90
2022/07/12 00:38:24;;;;;;;7.65;2.75;;;15.90;99.90;;;;;;4961258;28;20430;-90
2022/07/12 00:40:50;;;;;;;6.20;2.70;;;16.00;99.90;;;;;;4953046;28;20038;-90
2022/07/12 00:43:16;;;;;;;7.40;3.08;;;15.90;99.90;;;;;;4958869;28;20063;-91
2022/07/12 00:45:42;;;;;;;7.82;3.00;;;15.90;99.90;;;;;;4969101;28;20049;-90
2022/07/12 00:48:08;;;;;;;7.07;2.90;;;15.90;99.90;;;;;;4951390;28;20332;-91
2022/07/12 00:50:34;;;;;;;8.63;3.15;;;15.90;99.90;;;;;;4936742;28;20043;-90
2022/07/12 00:52:59;;;;;;;7.93;3.08;;;15.90;99.90;;;;;;4952978;28;20122;-90
2022/07/12 00:55:25;;;;;;;8.25;2.90;;;15.90;99.90;;;;;;4937134;28;20487;-90
2022/07/12 00:57:51;;;;;;;7.63;3.05;;;15.90;99.90;;;;;;4950075;28;20514;-90
2022/07/12 01:00:22;;;;;;;7.50;3.20;;;15.90;99.90;;;;;;4936752;28;20156;-89
2022/07/12 01:02:49;;;;;;;7.50;3.42;;;15.90;99.90;;;;;;4952579;28;20498;-90
2022/07/12 01:05:15;;;;;;;8.07;2.92;;;15.80;99.90;;;;;;4968681;28;20160;-90
2022/07/12 01:07:41;;;;;;;7.93;3.30;;;15.80;99.90;;;;;;4951691;28;20137;-89
2022/07/12 01:10:08;;;;;;;7.00;2.95;;;15.80;99.90;;;;;;4955788;28;20094;-89
2022/07/12 01:12:34;;;;;;;8.65;3.25;;;15.80;99.90;;;;;;4969102;28;20117;-90
2022/07/12 01:15:01;;;;;;;7.43;3.20;;;15.80;99.90;;;;;;4972498;28;20122;-90
2022/07/12 01:17:27;;;;;;;7.20;3.10;;;15.80;99.90;;;;;;4939370;28;20571;-90
2022/07/12 01:19:55;;;;;;;7.30;2.83;;;15.80;99.90;;;;;;4956175;28;20039;-90
2022/07/12 01:22:27;;;;;;;6.25;2.50;;;15.80;99.90;;;;;;4955767;28;20042;-90
2022/07/12 01:24:53;;;;;;;7.35;2.88;;;15.80;99.90;;;;;;4961317;28;20083;-90
2022/07/12 01:27:19;;;;;;;7.35;2.90;;;15.80;99.90;;;;;;4941545;28;20578;-89
2022/07/12 01:29:45;;;;;;;7.13;3.00;;;15.80;99.90;;;;;;4971898;28;20043;-91
2022/07/12 01:32:26;;;;;;;7.20;2.88;;;15.70;99.90;;;;;;4936310;28;20085;-90
2022/07/12 01:35:02;;;;;;;6.25;2.60;;;15.70;99.90;;;;;;4972139;28;20042;-89
2022/07/12 01:37:36;;;;;;;7.28;2.90;;;15.70;99.90;;;;;;4970843;28;20046;-90
2022/07/12 01:40:04;;;;;;;6.78;2.67;;;15.70;99.90;;;;;;4971762;28;20384;-90
2022/07/12 01:42:30;;;;;;;7.35;2.90;;;15.60;99.90;;;;;;4970294;28;20045;-90
2022/07/12 01:44:57;;;;;;;7.03;2.80;;;15.60;99.90;;;;;;4970341;28;20574;-90
2022/07/12 01:47:26;;;;;;;6.90;2.80;;;15.60;99.90;;;;;;4970325;28;20035;-90
2022/07/12 01:49:51;;;;;;;6.20;2.55;;;15.60;99.90;;;;;;4955618;28;20121;-90
2022/07/12 01:52:17;;;;;;;7.10;2.70;;;15.60;99.90;;;;;;4922267;28;20377;-90
2022/07/12 01:54:43;;;;;;;7.32;2.95;;;15.60;99.90;;;;;;4955530;28;20035;-90
2022/07/12 01:57:09;;;;;;;6.50;2.70;;;15.70;99.90;;;;;;4937773;28;20142;-90
2022/07/12 01:59:36;;;;;;;6.53;2.60;;;15.60;99.90;;;;;;4939247;28;20046;-90
2022/07/12 02:02:02;;;;;;;6.40;2.70;;;15.70;99.90;;;;;;4970953;28;20065;-90
2022/07/12 02:04:28;;;;;;;7.13;2.83;;;15.60;99.90;;;;;;4971380;28;20047;-90
2022/07/12 02:06:54;;;;;;;6.68;2.78;;;15.60;99.90;;;;;;4937687;28;20056;-90
2022/07/12 02:09:20;;;;;;;6.88;2.85;;;15.60;99.90;;;;;;4956356;28;20050;-90
2022/07/12 02:11:47;;;;;;;6.90;2.85;;;15.60;99.90;;;;;;4963880;28;20050;-89
2022/07/12 02:14:13;;;;;;;6.15;2.60;;;15.60;99.90;;;;;;4958480;28;20070;-91
2022/07/12 02:16:40;;;;;;;7.38;2.80;;;15.60;99.90;;;;;;4989958;28;20109;-90
2022/07/12 02:19:06;;;;;;;7.97;3.25;;;15.70;99.90;;;;;;4974294;28;20077;-90
2022/07/12 02:21:33;;;;;;;8.52;3.13;;;15.60;99.90;;;;;;4985383;28;20525;-91
2022/07/12 02:23:59;;;;;;;6.97;3.10;;;15.70;99.90;;;;;;4972209;28;20050;-90
2022/07/12 02:26:25;;;;;;;7.57;3.20;;;15.70;99.90;;;;;;4989378;28;20075;-90
2022/07/12 02:28:51;;;;;;;7.13;3.15;;;15.60;99.90;;;;;;4990364;28;20192;-91
2022/07/12 02:31:17;;;;;;;7.60;3.17;;;15.60;99.90;;;;;;4973874;28;20034;-90
2022/07/12 02:33:42;;;;;;;9.75;3.60;;;15.60;99.90;;;;;;4975892;28;20082;-89
2022/07/12 02:36:08;;;;;;;8.13;3.60;;;15.60;99.90;;;;;;4942154;28;20533;-90
2022/07/12 02:38:34;;;;;;;7.68;3.58;;;15.60;99.90;;;;;;4973318;28;20042;-90
2022/07/12 02:40:59;;;;;;;8.02;3.55;;;15.60;99.90;;;;;;4966929;28;20406;-90
2022/07/12 02:43:27;;;;;;;7.22;3.50;;;15.60;99.90;;;;;;4943156;28;20042;-90
2022/07/12 02:45:57;;;;;;;7.95;3.70;;;15.60;99.90;;;;;;4973506;28;20049;-91
2022/07/12 02:48:23;;;;;;;9.20;3.55;;;15.60;99.90;;;;;;4988600;28;20054;-90
2022/07/12 02:50:49;;;;;;;7.72;3.10;;;15.60;99.90;;;;;;4973419;28;20038;-90
2022/07/12 02:53:15;;;;;;;7.65;3.35;;;15.60;99.90;;;;;;4973663;28;20057;-90
2022/07/12 02:55:41;;;;;;;7.63;3.35;;;15.60;99.90;;;;;;4972785;28;20038;-90
2022/07/12 02:58:07;;;;;;;7.40;3.10;;;15.60;99.90;;;;;;4988907;28;20044;-90
2022/07/12 03:00:34;;;;;;;6.95;3.03;;;15.60;99.90;;;;;;4990159;28;20403;-90
2022/07/12 03:03:00;;;;;;;7.53;3.72;;;15.70;99.90;;;;;;4965268;28;20185;-91
2022/07/12 03:05:26;;;;;;;7.28;3.20;;;15.70;99.90;;;;;;4985485;28;20069;-90
2022/07/12 03:07:51;;;;;;;8.00;3.50;;;15.60;99.90;;;;;;4972214;28;20395;-90
2022/07/12 03:10:17;;;;;;;8.25;3.83;;;15.60;99.90;;;;;;5007092;28;20065;-90
2022/07/12 03:12:43;;;;;;;8.15;4.13;;;15.60;99.90;;;;;;4976009;28;20042;-90
2022/07/12 03:15:09;;;;;;;9.38;4.47;;;15.60;99.90;;;;;;4989543;28;20038;-90
2022/07/12 03:17:35;;;;;;;8.90;4.70;;;15.60;99.90;;;;;;4976414;28;20573;-89
2022/07/12 03:20:02;;;;;;;8.43;4.38;;;15.60;99.90;;;;;;4991618;28;20041;-90
2022/07/12 03:22:28;;;;;;;8.80;4.53;;;15.50;99.90;;;;;;4987307;28;20191;-89
2022/07/12 03:24:53;;;;;;;9.48;4.93;;;15.50;99.90;;;;;;4995088;28;20133;-90
2022/07/12 03:27:19;;;;;;;8.48;4.30;;;15.50;99.90;;;;;;4966461;28;20116;-90
2022/07/12 03:29:45;;;;;;;8.75;4.47;;;15.50;99.90;;;;;;5008015;28;20045;-91
2022/07/12 03:32:10;;;;;;;8.93;4.75;;;15.50;99.90;;;;;;4992362;28;20080;-89
2022/07/12 03:34:37;;;;;;;8.55;4.50;;;15.50;99.90;;;;;;4976457;28;20137;-90
2022/07/12 03:37:03;;;;;;;8.80;4.63;;;15.50;99.90;;;;;;4975825;28;20594;-90
2022/07/12 03:39:30;;;;;;;8.73;3.90;;;15.50;99.90;;;;;;4975925;28;20092;-90
2022/07/12 03:41:56;;;;;;;7.88;3.83;;;15.50;99.90;;;;;;4963667;28;20112;-90
2022/07/12 03:44:22;;;;;;;9.38;4.50;;;15.50;99.90;;;;;;4980110;28;20046;-90
2022/07/12 03:46:48;;;;;;;10.15;4.85;;;15.50;99.90;;;;;;4975846;28;20096;-90
2022/07/12 03:49:14;;;;;;;8.98;4.65;;;15.50;99.90;;;;;;4991178;28;20041;-89
2022/07/12 03:51:40;;;;;;;9.82;4.18;;;15.50;99.90;;;;;;4943957;28;20352;-90
2022/07/12 03:54:09;;;;;;;8.27;4.50;;;15.50;99.90;;;;;;4959917;28;20323;-90
2022/07/12 03:59:20;;;;;;;8.50;4.55;;;15.50;99.90;;;;;;4990990;28;20413;-90
2022/07/12 04:01:46;;;;;;;8.85;4.43;;;15.40;99.90;;;;;;5010921;28;20069;-90
2022/07/12 04:04:12;;;;;;;9.25;4.88;;;15.40;99.90;;;;;;4997081;28;20510;-90
2022/07/12 04:06:38;;;;;;;9.02;5.07;;;15.40;99.90;;;;;;4975429;28;20092;-89
2022/07/12 04:09:05;;;;;;;9.13;4.88;;;15.40;99.90;;;;;;4990529;28;20065;-91
2022/07/12 04:11:31;;;;;;;8.63;4.75;;;15.40;99.90;;;;;;4992010;28;20038;-90
2022/07/12 04:13:57;;;;;;;8.90;4.80;;;15.40;99.90;;;;;;4963540;28;20048;-91
2022/07/12 04:16:22;;;;;;;9.30;4.82;;;15.40;99.90;;;;;;4959597;28;20413;-90
2022/07/12 04:18:48;;;;;;;9.88;4.63;;;15.40;99.90;;;;;;4974330;28;20038;-90
2022/07/12 04:21:14;;;;;;;8.15;4.25;;;15.40;99.90;;;;;;4991487;28;20057;-90
2022/07/12 04:23:40;;;;;;;9.07;4.85;;;15.40;99.90;;;;;;4971031;28;20039;-90
2022/07/12 04:26:05;;;;;;;9.10;5.10;;;15.40;99.90;;;;;;4975525;28;20125;-90
2022/07/12 04:28:31;;;;;;;10.27;5.18;;;15.40;99.90;;;;;;4958364;28;20045;-90
2022/07/12 04:30:56;;;;;;;18.27;5.75;;;15.40;99.90;;;;;;4991262;28;20040;-90
2022/07/12 04:33:22;;;;;;;9.13;4.95;;;15.40;99.90;;;;;;4990010;28;20477;-90
2022/07/12 04:35:48;;;;;;;12.52;5.28;;;15.40;99.90;;;;;;4989890;28;20666;-90
2022/07/12 04:38:13;;;;;;;8.82;4.63;;;15.40;99.90;;;;;;4989795;28;20042;-89
2022/07/12 04:40:39;;;;;;;9.90;5.18;;;15.50;99.90;;;;;;4974120;28;20402;-89
2022/07/12 04:43:05;;;;;;;10.15;5.00;;;15.50;99.90;;;;;;4977521;28;20555;-89
2022/07/12 04:45:31;;;;;;;8.82;4.63;;;15.50;99.90;;;;;;4943690;28;20100;-89
2022/07/12 04:47:56;;;;;;;8.32;4.03;;;15.50;99.90;;;;;;4972666;28;20111;-90
2022/07/12 04:50:22;;;;;;;10.77;4.78;;;15.50;99.90;;;;;;4984612;28;20115;-89
2022/07/12 04:52:47;;;;;;;7.72;3.63;;;15.50;99.90;;;;;;4992670;28;20076;-89
2022/07/12 04:55:13;;;;;;;8.38;4.00;;;15.50;99.90;;;;;;4993004;28;20478;-89
2022/07/12 04:57:39;;;;;;;8.75;3.95;;;15.50;99.90;;;;;;4978252;28;20046;-89
2022/07/12 05:00:06;;;;;;;8.77;4.22;;;15.50;99.90;;;;;;4980726;28;20083;-89
2022/07/12 05:02:32;;;;;;;11.50;5.53;;;15.60;99.90;;;;;;4984833;28;20037;-90
2022/07/12 05:04:58;;;;;;;8.82;4.63;;;15.60;99.90;;;;;;4975168;28;20509;-89
2022/07/12 05:07:24;;;;;;;9.75;5.05;;;15.60;99.90;;;;;;4988411;28;20144;-89
2022/07/12 05:09:51;;;;;;;10.20;5.60;;;15.60;99.90;;;;;;4968029;28;20292;-89
2022/07/12 05:12:17;;;;;;;9.98;5.15;;;15.60;99.90;;;;;;5008791;28;20042;-89
2022/07/12 05:14:42;;;;;;;10.25;5.05;;;15.60;99.90;;;;;;4968116;28;20552;-90
2022/07/12 05:17:09;;;;;;;9.48;4.55;;;15.60;99.90;;;;;;5001138;28;20046;-90
2022/07/12 05:19:34;;;;;;;8.38;3.95;;;15.60;99.90;;;;;;4960599;28;20421;-89
2022/07/12 05:22:02;;;;;;;9.00;4.13;;;15.60;99.90;;;;;;4971367;28;20046;-90
2022/07/12 05:24:28;;;;;;;9.10;4.75;;;15.60;99.90;;;;;;4969524;28;20045;-89
2022/07/12 05:26:54;;;;;;;9.13;4.50;;;15.70;99.90;;;;;;4982005;28;20042;-90
2022/07/12 05:29:19;;;;;;;9.65;4.88;;;15.70;99.90;;;;;;5009981;28;20049;-89
2022/07/12 05:31:45;;;;;;;8.98;4.20;;;15.70;99.90;;;;;;4951242;28;20037;-89
2022/07/12 05:34:11;;;;;;;8.63;4.43;;;15.80;99.90;;;;;;4961212;28;20057;-89
2022/07/12 05:36:37;;;;;;;9.38;4.85;;;15.90;99.90;;;;;;4958904;28;20132;-90
2022/07/12 05:39:03;;;;;;;9.43;4.78;;;15.90;99.90;;;;;;4977964;28;20346;-90
2022/07/12 05:41:29;;;;;;;9.18;4.75;;;16.00;99.90;;;;;;4978595;28;20042;-89
2022/07/12 05:43:55;;;;;;;8.65;4.38;;;16.10;99.90;;;;;;4977151;28;20120;-90
2022/07/12 05:46:20;;;;;;;8.90;4.40;;;16.10;99.90;;;;;;4962016;28;20041;-90
2022/07/12 05:48:46;;;;;;;10.13;5.40;;;16.20;99.90;;;;;;4961707;28;20037;-90
2022/07/12 05:53:56;;;;;;;9.05;4.65;;;16.20;99.90;;;;;;4994986;28;20124;-89
2022/07/12 05:56:22;;;;;;;8.77;4.53;;;16.30;99.90;;;;;;4993499;28;20121;-89
2022/07/12 05:58:47;;;;;;;8.52;4.10;;;16.30;99.90;;;;;;4974394;28;20549;-89
2022/07/12 06:01:13;;;;;;;8.45;4.10;;;16.30;99.90;;;;;;4987754;28;20037;-90
2022/07/12 06:03:39;;;;;;;8.82;4.60;;;16.40;99.90;;;;;;4993667;28;20050;-90
2022/07/12 06:06:05;;;;;;;9.30;4.50;;;16.40;99.90;;;;;;4994169;28;20088;-90
2022/07/12 06:08:30;;;;;;;8.98;4.80;;;16.50;99.90;;;;;;4990832;28;20058;-90
2022/07/12 06:10:56;;;;;;;8.32;4.30;;;16.50;99.90;;;;;;4967460;28;20046;-90
2022/07/12 06:13:22;;;;;;;8.50;4.30;;;16.60;99.90;;;;;;4992986;28;20046;-89
2022/07/12 06:15:48;;;;;;;9.25;4.75;;;16.60;99.90;;;;;;4977854;28;20069;-90
2022/07/12 06:18:13;;;;;;;8.30;4.35;;;16.70;99.90;;;;;;4948287;28;20117;-89
2022/07/12 06:20:39;;;;;;;9.77;4.68;;;16.70;99.90;;;;;;4985788;28;20088;-91
2022/07/12 06:23:05;;;;;;;9.15;5.15;;;16.80;99.90;;;;;;4980222;28;20034;-88
2022/07/12 06:25:30;;;;;;;9.70;5.28;;;16.80;99.90;;;;;;4972255;28;20080;-89
2022/07/12 06:28:00;;;;;;;10.13;5.15;;;16.80;99.90;;;;;;4977002;28;20157;-90
2022/07/12 06:30:26;;;;;;;9.70;4.43;;;16.90;99.90;;;;;;4960572;28;20115;-91
2022/07/12 06:32:51;;;;;;;9.25;4.38;;;17.00;99.90;;;;;;4986100;28;20553;-89
2022/07/12 06:35:17;;;;;;;9.90;4.20;;;17.00;99.90;;;;;;4976671;28;20124;-90
2022/07/12 06:37:43;;;;;;;8.57;4.47;;;17.10;99.90;;;;;;4961396;28;20045;-92
2022/07/12 06:40:10;;;;;;;8.95;4.47;;;17.10;99.90;;;;;;4992241;28;20042;-89
2022/07/12 06:42:36;;;;;;;8.68;4.25;;;17.20;99.90;;;;;;4976355;28;20528;-92
2022/07/12 06:45:03;;;;;;;9.90;4.57;;;17.30;99.90;;;;;;4993450;28;20049;-89
2022/07/12 06:47:29;;;;;;;8.02;3.90;;;17.40;99.90;;;;;;4993223;28;20057;-89
2022/07/12 06:49:55;;;;;;;8.60;4.47;;;17.40;99.90;;;;;;4976840;28;20038;-88
2022/07/12 06:52:20;;;;;;;9.20;4.53;;;17.50;99.90;;;;;;4980888;28;20042;-88
2022/07/12 06:54:46;;;;;;;8.93;4.15;;;17.60;99.90;;;;;;4963482;28;20198;-88
2022/07/12 06:57:12;;;;;;;8.98;4.22;;;17.60;99.90;;;;;;4995168;28;20506;-89
2022/07/12 06:59:41;;;;;;;8.73;4.10;;;17.70;99.90;;;;;;4982724;28;20498;-88
2022/07/12 07:02:06;;;;;;;7.93;3.83;;;17.80;99.90;;;;;;4961016;28;20073;-88
2022/07/12 07:04:32;;;;;;;8.65;4.25;;;17.90;99.90;;;;;;5005880;28;20113;-87
2022/07/12 07:06:58;;;;;;;8.30;3.90;;;18.10;99.90;;;;;;4970942;28;20042;-88
2022/07/12 07:09:23;;;;;;;7.70;3.60;;;18.20;99.90;;;;;;4980500;28;20077;-88
2022/07/12 07:11:49;;;;;;;8.27;3.75;;;18.40;99.90;;;;;;4970362;28;20056;-88
2022/07/12 07:14:15;;;;;;;8.07;3.72;;;18.40;99.90;;;;;;4970067;28;20041;-88
2022/07/12 07:16:40;;;;;;;7.95;3.60;;;18.50;99.90;;;;;;4960496;28;20133;-89
2022/07/12 07:19:06;;;;;;;8.10;3.95;;;18.60;99.90;;;;;;4989056;28;20092;-90
2022/07/12 07:21:32;;;;;;;8.80;4.30;;;18.60;99.90;;;;;;4982320;28;20181;-89
2022/07/12 07:23:58;;;;;;;8.77;4.10;;;18.60;99.90;;;;;;4993590;28;20124;-90
2022/07/12 07:26:23;;;;;;;7.95;3.80;;;18.60;99.90;;;;;;5004555;28;20494;-89
2022/07/12 07:31:35;;;;;;;8.40;3.63;;;18.80;99.90;;;;;;4987116;28;20453;-89
2022/07/12 07:34:01;;;;;;;7.28;3.50;;;19.00;99.90;;;;;;4974031;28;20049;-88
2022/07/12 07:36:27;;;;;;;8.23;3.92;;;19.30;99.90;;;;;;4972561;28;20039;-90
2022/07/12 07:38:52;;;;;;;7.47;3.30;;;19.40;99.90;;;;;;5005088;28;20034;-89
2022/07/12 07:41:18;;;;;;;7.25;3.22;;;19.60;99.90;;;;;;5012969;28;20065;-91
2022/07/12 07:43:44;;;;;;;8.60;3.95;;;19.80;99.90;;;;;;5008332;28;20045;-89
2022/07/12 07:46:09;;;;;;;7.53;3.53;;;20.00;99.90;;;;;;5006259;28;20125;-89
2022/07/12 07:48:35;;;;;;;7.90;3.50;;;20.10;99.90;;;;;;4992318;28;20030;-89
2022/07/12 07:51:01;;;;;;;12.27;3.70;;;20.30;99.90;;;;;;4976926;28;20508;-89
2022/07/12 07:53:27;;;;;;;8.18;3.60;;;20.40;99.90;;;;;;4974480;28;20045;-90
2022/07/12 07:55:52;;;;;;;7.50;3.30;;;20.50;99.90;;;;;;4981908;28;20070;-89
2022/07/12 07:58:20;;;;;;;7.53;3.30;;;20.60;99.90;;;;;;4990212;28;20417;-89
2022/07/12 08:00:47;;;;;;;7.32;3.08;;;20.70;99.90;;;;;;4989352;28;20046;-88
2022/07/12 08:03:13;;;;;;;8.18;3.60;;;20.80;99.90;;;;;;4969433;28;20124;-90
2022/07/12 08:05:39;;;;;;;8.05;3.45;;;20.90;99.90;;;;;;4977003;28;20049;-91
2022/07/12 08:08:05;;;;;;;6.95;3.08;;;21.00;99.90;;;;;;4966498;28;20054;-89
2022/07/12 08:10:30;;;;;;;8.10;3.50;;;21.00;99.90;;;;;;4999157;28;20050;-89
2022/07/12 08:12:56;;;;;;;7.25;3.25;;;21.00;99.90;;;;;;4958776;28;20117;-89
2022/07/12 08:15:22;;;;;;;7.40;3.10;;;21.10;99.90;;;;;;4942970;28;20041;-92
2022/07/12 08:17:48;;;;;;;7.80;3.15;;;21.20;99.90;;;;;;4956845;28;20046;-92
2022/07/12 08:20:13;;;;;;;8.30;3.00;;;21.40;99.90;;;;;;4957171;28;20379;-92
2022/07/12 08:22:46;;;;;;;8.05;3.28;;;21.50;99.90;;;;;;4990557;28;20038;-91
2022/07/12 08:25:12;;;;;;;7.10;2.78;;;21.60;99.90;;;;;;4987562;28;20096;-89
2022/07/12 08:27:38;;;;;;;6.80;2.70;;;21.70;99.90;;;;;;4976786;28;20030;-90
2022/07/12 08:30:05;;;;;;;6.47;2.70;;;21.80;99.90;;;;;;5003132;28;20057;-89
2022/07/12 08:32:30;;;;;;;7.90;3.00;;;21.80;99.90;;;;;;4985120;28;20482;-89
2022/07/12 08:34:56;;;;;;;6.93;2.80;;;22.00;99.90;;;;;;4984005;28;20045;-90
2022/07/12 08:37:22;;;;;;;10.02;3.10;;;21.90;99.90;;;;;;4965981;28;20050;-93
2022/07/12 08:39:47;;;;;;;7.40;2.97;;;21.90;99.90;;;;;;4986890;28;20052;-90
2022/07/12 08:42:18;;;;;;;7.63;3.03;;;21.80;99.90;;;;;;4970324;28;20042;-91
2022/07/12 08:44:53;;;;;;;6.45;2.70;;;21.80;99.90;;;;;;4985552;28;20486;-89
2022/07/12 08:47:18;;;;;;;6.97;3.00;;;21.80;99.90;;;;;;4990572;28;20044;-92
2022/07/12 08:50:13;;;;;;;9.18;3.03;;;21.90;99.90;;;;;;4983670;28;20122;-91
2022/07/12 08:52:44;;;;;;;7.63;2.63;;;21.90;99.90;;;;;;4986224;28;20581;-91
2022/07/12 08:55:25;;;;;;;6.15;2.60;;;21.90;99.90;;;;;;5008793;28;20505;-91
2022/07/12 08:57:53;;;;;;;7.85;2.97;;;21.90;99.90;;;;;;4989406;28;20042;-90
2022/07/12 09:00:20;;;;;;;8.18;2.65;;;21.80;99.90;;;;;;4972799;28;20399;-90
2022/07/12 09:02:51;;;;;;;6.43;2.53;;;21.90;99.90;;;;;;5003341;28;20052;-91
2022/07/12 09:05:21;;;;;;;6.80;2.58;;;22.00;99.90;;;;;;4992893;28;20117;-92
2022/07/12 09:07:48;;;;;;;6.25;2.45;;;22.00;99.90;;;;;;4969170;28;20052;-91
2022/07/12 09:10:14;;;;;;;6.72;2.42;;;22.20;99.90;;;;;;4993780;28;20391;-89
2022/07/12 09:12:42;;;;;;;7.32;2.70;;;22.20;99.90;;;;;;4992319;28;20084;-92
2022/07/12 09:15:17;;;;;;;6.45;2.30;;;22.30;99.90;;;;;;4978336;28;20037;-91
2022/07/12 09:17:55;;;;;;;6.28;2.30;;;22.40;99.90;;;;;;5009273;28;20073;-91
2022/07/12 09:20:21;;;;;;;6.80;2.40;;;22.50;99.90;;;;;;4994382;28;20401;-91
2022/07/12 09:22:55;;;;;;;6.38;2.50;;;22.60;99.90;;;;;;4970233;28;20042;-90
2022/07/12 09:25:21;;;;;;;8.35;2.55;;;22.70;99.90;;;;;;4991930;28;20065;-90
2022/07/12 09:27:53;;;;;;;5.95;2.40;;;22.70;99.90;;;;;;4975394;28;20034;-93
2022/07/12 09:30:20;;;;;;;6.50;2.35;;;22.90;99.90;;;;;;4979128;28;20030;-92
2022/07/12 09:38:21;;;;;;;5.03;2.03;;;22.10;99.90;;;;;;4984589;28;20038;-90
2022/07/12 09:40:48;;;;;;;6.35;2.40;;;23.20;99.90;;;;;;4968603;28;20072;-90
2022/07/12 09:43:15;;;;;;;6.85;2.40;;;23.30;99.90;;;;;;4975594;28;20045;-90
2022/07/12 09:45:43;;;;;;;5.30;2.15;;;23.40;99.90;;;;;;4971510;28;20045;-89
2022/07/12 09:48:11;;;;;;;6.80;2.50;;;23.50;99.90;;;;;;4978522;28;20041;-90
2022/07/12 09:50:37;;;;;;;6.88;2.70;;;23.60;99.90;;;;;;4962353;28;20069;-90
2022/07/12 09:53:04;;;;;;;6.80;2.30;;;23.70;99.90;;;;;;4986895;28;20038;-91
2022/07/12 09:55:32;;;;;;;5.60;2.30;;;23.70;99.90;;;;;;5002066;28;20053;-91
2022/07/12 09:58:01;;;;;;;6.25;2.78;;;23.80;99.90;;;;;;5003199;28;20042;-90
2022/07/12 10:00:28;;;;;;;6.18;2.42;;;23.80;99.90;;;;;;4955977;28;20556;-90
2022/07/12 10:02:55;;;;;;;6.63;2.50;;;24.00;99.90;;;;;;4972017;28;20654;-91
2022/07/12 10:05:24;;;;;;;7.68;2.50;;;24.00;99.90;;;;;;4970228;28;20494;-93
2022/07/12 10:07:51;;;;;;;7.60;2.20;;;24.00;99.90;;;;;;4989030;28;20270;-89
2022/07/12 10:10:17;;;;;;;6.95;2.45;;;24.00;99.90;;;;;;5000516;28;20387;-93
2022/07/12 10:12:44;;;;;;;7.55;2.55;;;24.20;99.90;;;;;;4981495;28;20045;-91
2022/07/12 10:15:17;;;;;;;6.07;2.40;;;24.20;99.90;;;;;;4986298;28;20077;-90
2022/07/12 10:17:53;;;;;;;8.15;2.70;;;24.40;99.90;;;;;;4968170;28;20037;-92
2022/07/12 10:20:26;;;;;;;7.43;2.63;;;24.60;99.90;;;;;;4967153;28;20036;-92
2022/07/12 10:23:15;;;;;;;6.53;2.50;;;24.70;99.90;;;;;;4974407;28;20109;-92
2022/07/12 10:25:41;;;;;;;5.13;2.00;;;24.70;99.90;;;;;;4986791;28;20042;-93
2022/07/12 10:28:07;;;;;;;5.68;2.15;;;24.60;99.90;;;;;;5000672;28;20057;-90
2022/07/12 10:30:43;;;;;;;5.45;2.13;;;24.60;99.90;;;;;;4984832;28;20101;-90
2022/07/12 10:33:20;;;;;;;4.93;2.20;;;24.50;99.90;;;;;;4986925;28;20034;-93
2022/07/12 10:36:06;;;;;;;4.75;1.88;;;24.50;99.90;;;;;;4975036;28;20414;-92
2022/07/12 10:38:32;;;;;;;5.97;2.20;;;24.60;99.90;;;;;;4965574;28;20042;-94
2022/07/12 10:41:15;;;;;;;7.40;2.20;;;24.60;99.90;;;;;;4985354;28;20463;-92
2022/07/12 10:46:25;;;;;;;4.38;1.95;;;24.70;99.90;;;;;;4981696;28;19960;-92
2022/07/12 10:49:11;;;;;;;5.63;2.13;;;24.90;99.90;;;;;;4982059;28;20080;-92
2022/07/12 10:51:37;;;;;;;5.65;1.92;;;25.10;99.90;;;;;;4973366;28;20045;-94
2022/07/12 10:54:20;;;;;;;5.45;2.17;;;25.10;99.90;;;;;;4984249;28;20046;-93
2022/07/12 10:56:56;;;;;;;6.00;1.98;;;25.20;99.90;;;;;;4955254;28;20077;-90
2022/07/12 10:59:23;;;;;;;4.00;1.75;;;25.30;99.90;;;;;;4957223;28;20040;-92
2022/07/12 11:01:52;;;;;;;5.45;2.13;;;25.30;99.90;;;;;;4968487;28;20124;-92
2022/07/12 11:04:18;;;;;;;5.75;2.20;;;25.40;99.90;;;;;;4973338;28;20732;-91
2022/07/12 11:06:44;;;;;;;4.93;2.00;;;25.40;99.90;;;;;;4958257;28;20048;-92
2022/07/12 11:09:17;;;;;;;3.75;1.70;;;25.50;99.90;;;;;;4977471;28;20046;-91
2022/07/12 11:11:44;;;;;;;4.68;1.83;;;25.50;99.90;;;;;;4969738;28;20208;-91
2022/07/12 11:14:11;;;;;;;7.05;1.90;;;25.50;99.90;;;;;;5001767;28;20041;-90
2022/07/12 11:16:45;;;;;;;5.80;1.90;;;25.50;99.90;;;;;;4971075;28;20049;-92
2022/07/12 11:19:10;;;;;;;3.15;1.60;;;25.50;99.90;;;;;;4981727;28;20104;-91
2022/07/12 11:21:36;;;;;;;2.97;1.50;;;25.50;99.90;;;;;;4981940;28;20042;-92
2022/07/12 11:24:14;;;;;;;5.07;1.85;;;25.50;99.90;;;;;;4970021;28;20041;-92
2022/07/12 11:26:40;;;;;;;5.40;1.75;;;25.50;99.90;;;;;;4968036;28;20088;-90
2022/07/12 11:29:06;;;;;;;3.60;1.63;;;25.50;99.90;;;;;;4970246;28;20042;-91
2022/07/12 11:31:31;;;;;;;3.35;1.27;;;25.50;99.90;;;;;;4954963;28;20482;-91
2022/07/12 11:33:57;;;;;;;4.03;1.50;;;25.50;99.90;;;;;;4999401;28;20056;-91
2022/07/12 11:36:27;;;;;;;7.93;1.77;;;25.60;99.90;;;;;;4982654;28;20042;-91
2022/07/12 11:38:53;;;;;;;2.10;1.20;;;25.60;99.90;;;;;;4982410;28;20037;-92
2022/07/12 11:41:19;;;;;;;3.00;1.40;;;25.50;99.90;;;;;;4962952;28;20196;-91
2022/07/12 11:43:45;;;;;;;6.03;1.83;;;25.50;99.90;;;;;;4966945;28;20054;-90
2022/07/12 11:46:12;;;;;;;4.53;1.40;;;25.70;99.90;;;;;;4971951;28;20053;-95
2022/07/12 11:48:38;;;;;;;3.15;1.35;;;25.80;99.90;;;;;;4999864;28;20087;-91
2022/07/12 11:51:10;;;;;;;5.93;1.60;;;25.90;99.90;;;;;;4984040;28;20049;-91
2022/07/12 11:53:37;;;;;;;5.45;1.50;;;26.20;99.90;;;;;;4967859;28;20141;-90
2022/07/12 11:56:05;;;;;;;3.67;1.55;;;26.30;99.90;;;;;;4972912;28;20405;-92
2022/07/12 11:58:38;;;;;;;3.63;1.60;;;26.40;99.90;;;;;;4971244;28;20120;-91
2022/07/12 12:01:04;;;;;;;4.95;1.60;;;26.70;99.90;;;;;;4981327;28;20049;-92
2022/07/12 12:03:32;;;;;;;3.15;1.30;;;26.70;99.90;;;;;;4965550;28;20038;-92
2022/07/12 12:05:58;;;;;;;2.97;1.48;;;26.80;99.90;;;;;;4986330;28;20038;-93
2022/07/12 12:08:25;;;;;;;3.67;1.40;;;26.80;99.90;;;;;;4989298;28;20469;-93
2022/07/12 12:11:00;;;;;;;8.13;2.00;;;26.80;99.90;;;;;;4960447;28;20144;-91
2022/07/12 12:13:28;;;;;;;3.85;1.48;;;26.80;99.90;;;;;;4983465;28;20042;-91
2022/07/12 12:15:56;;;;;;;4.43;1.60;;;26.70;99.90;;;;;;4982466;28;20037;-94
2022/07/12 12:18:35;;;;;;;3.92;1.50;;;26.80;99.90;;;;;;4996222;28;20470;-93
2022/07/12 12:21:03;;;;;;;2.33;1.40;;;26.90;99.90;;;;;;4972370;28;20057;-94
2022/07/12 12:23:29;;;;;;;3.75;1.50;;;27.10;99.90;;;;;;5000485;28;20175;-93
2022/07/12 12:26:20;;;;;;;3.55;1.38;;;27.10;99.90;;;;;;4972502;28;20042;-92
2022/07/12 12:28:51;;;;;;;2.38;1.40;;;27.20;99.90;;;;;;4974533;28;20747;-91
2022/07/12 12:31:20;;;;;;;2.65;1.40;;;27.20;99.90;;;;;;5000002;28;20034;-91
2022/07/12 12:33:46;;;;;;;2.85;1.27;;;27.40;99.90;;;;;;4980635;28;20049;-90
2022/07/12 12:36:18;;;;;;;2.22;1.30;;;27.40;99.90;;;;;;5001749;28;20038;-89
2022/07/12 12:38:44;;;;;;;2.80;1.47;;;27.40;99.90;;;;;;4990214;28;20088;-92
2022/07/12 12:41:14;;;;;;;3.38;1.40;;;27.40;99.90;;;;;;5003004;28;20050;-92
2022/07/12 12:43:40;;;;;;;4.03;1.50;;;27.40;99.90;;;;;;4955443;28;20219;-91
2022/07/12 12:46:07;;;;;;;2.72;1.40;;;27.50;99.90;;;;;;4978534;28;20049;-93
2022/07/12 12:48:34;;;;;;;2.38;1.35;;;27.40;99.90;;;;;;4959693;28;20038;-92
2022/07/12 12:51:11;;;;;;;5.70;1.50;;;27.40;99.90;;;;;;4964780;28;20052;-91
2022/07/12 12:53:39;;;;;;;5.13;1.30;;;27.40;99.90;;;;;;4979630;28;20038;-92
2022/07/12 12:56:13;;;;;;;1.45;1.20;;;27.50;99.90;;;;;;4961308;28;20490;-91
2022/07/12 12:58:40;;;;;;;2.85;0.95;;;27.60;99.90;;;;;;4988953;28;20426;-94
2022/07/12 13:01:07;;;;;;;2.30;1.13;;;27.70;99.90;;;;;;4954595;28;20042;-92
2022/07/12 13:03:33;;;;;;;3.70;1.25;;;27.80;99.90;;;;;;4975514;28;20033;-95